Time;durP1;ratioP1;P1;durP2;ratioP2;P2;SDS_P1;SDS_P2;PMS_P1;PMS_P2;Temp;Humidity;BMP_temperature;BMP_pressure;BME280_temperature;BME280_humidity;BME280_pressure;Samples;Min_cycle;Max_cycle;Signal;HPM_P1;HPM_P2
2020/03/24 00:00:00;;;;;;;5.05;3.7;;;;;;;-2.74;40.84863;96455.55;;;;
2020/03/24 00:01:16;;;;;;;5.05;3.7;;;;;;;-2.74;40.84863;96455.55;;;;
2020/03/24 00:02:37;;;;;;;5.05;3.7;;;;;;;-2.74;40.84863;96455.55;;;;
2020/03/24 00:03:37;;;;;;;5.05;3.7;;;;;;;-2.74;40.84863;96455.55;;;;
2020/03/24 00:04:42;;;;;;;5.05;3.7;;;;;;;-2.74;40.84863;96455.55;;;;
2020/03/24 00:05:55;;;;;;;5.05;3.7;;;;;;;-2.74;40.84863;96455.55;;;;
2020/03/24 00:06:55;;;;;;;5.05;3.7;;;;;;;-2.74;40.84863;96455.55;;;;
2020/03/24 00:08:00;;;;;;;5.05;3.7;;;;;;;-2.74;40.84863;96455.55;;;;
2020/03/24 00:09:02;;;;;;;5.05;3.7;;;;;;;-2.74;40.84863;96455.55;;;;
2020/03/24 00:10:19;;;;;;;8.6;3.75;;;;;;;-2.85;40.69141;96460.88;;;;
2020/03/24 00:12:04;;;;;;;6;3.85;;;;;;;-2.84;40.91211;96455.96;;;;
2020/03/24 00:13:05;;;;;;;6;3.85;;;;;;;-2.84;40.91211;96455.96;;;;
2020/03/24 00:14:11;;;;;;;6;3.85;;;;;;;-2.84;40.91211;96455.96;;;;
2020/03/24 00:15:15;;;;;;;6;3.85;;;;;;;-2.84;40.91211;96455.96;;;;
2020/03/24 00:16:26;;;;;;;6;3.85;;;;;;;-2.84;40.91211;96455.96;;;;
2020/03/24 00:17:30;;;;;;;6;3.85;;;;;;;-2.84;40.91211;96455.96;;;;
2020/03/24 00:18:31;;;;;;;6;3.85;;;;;;;-2.84;40.91211;96455.96;;;;
2020/03/24 00:19:37;;;;;;;6;3.85;;;;;;;-2.84;40.91211;96455.96;;;;
2020/03/24 00:21:02;;;;;;;6;3.85;;;;;;;-2.84;40.91211;96455.96;;;;
2020/03/24 00:22:20;;;;;;;6;3.85;;;;;;;-2.84;40.91211;96455.96;;;;
2020/03/24 00:23:24;;;;;;;6.45;3.5;;;;;;;-2.99;40.79395;96432.53;;;;
2020/03/24 00:24:25;;;;;;;6.45;3.5;;;;;;;-2.99;40.79395;96432.53;;;;
2020/03/24 00:25:33;;;;;;;6.749999;4;;;;;;;-2.96;41.08984;96437.55;;;;
2020/03/24 00:31:49;;;;;;;6.749999;4;;;;;;;-2.96;41.08984;96437.55;;;;
2020/03/24 00:32:50;;;;;;;6.749999;4;;;;;;;-2.96;41.08984;96437.55;;;;
2020/03/24 00:33:51;;;;;;;6.749999;4;;;;;;;-2.96;41.08984;96437.55;;;;
2020/03/24 00:34:51;;;;;;;6.749999;4;;;;;;;-2.96;41.08984;96437.55;;;;
2020/03/24 00:35:52;;;;;;;6.749999;4;;;;;;;-2.96;41.08984;96437.55;;;;
2020/03/24 00:36:54;;;;;;;7.2;3.75;;;;;;;-3.07;40.80664;96437.59;;;;
2020/03/24 00:37:54;;;;;;;7.2;3.75;;;;;;;-3.07;40.80664;96437.59;;;;
2020/03/24 00:39:01;;;;;;;6.500001;4.05;;;;;;;-3.05;41.15332;96436.56;;;;
2020/03/24 00:40:44;;;;;;;6.500001;4.05;;;;;;;-3.05;41.15332;96436.56;;;;
2020/03/24 00:41:51;;;;;;;6.500001;4.05;;;;;;;-3.05;41.15332;96436.56;;;;
2020/03/24 00:42:51;;;;;;;6.500001;4.05;;;;;;;-3.05;41.15332;96436.56;;;;
2020/03/24 00:43:52;;;;;;;6.500001;4.05;;;;;;;-3.05;41.15332;96436.56;;;;
2020/03/24 00:44:56;;;;;;;6.500001;4.05;;;;;;;-3.05;41.15332;96436.56;;;;
2020/03/24 00:45:58;;;;;;;6.500001;4.05;;;;;;;-3.05;41.15332;96436.56;;;;
2020/03/24 00:46:59;;;;;;;6.500001;4.05;;;;;;;-3.05;41.15332;96436.56;;;;
2020/03/24 00:48:00;;;;;;;6.500001;4.05;;;;;;;-3.05;41.15332;96436.56;;;;
2020/03/24 00:49:03;;;;;;;6.500001;4.05;;;;;;;-3.05;41.15332;96436.56;;;;
2020/03/24 00:50:06;;;;;;;5.9;3.8;;;;;;;-3.17;41.09082;96441.05;;;;
2020/03/24 00:51:07;;;;;;;5.9;3.8;;;;;;;-3.17;41.09082;96441.05;;;;
2020/03/24 00:52:13;;;;;;;6.15;3.6;;;;;;;-3.15;41.34375;96435.17;;;;
2020/03/24 00:53:16;;;;;;;6.15;3.6;;;;;;;-3.15;41.34375;96435.17;;;;
2020/03/24 00:54:16;;;;;;;6.15;3.6;;;;;;;-3.15;41.34375;96435.17;;;;
2020/03/24 00:55:17;;;;;;;6.15;3.6;;;;;;;-3.15;41.34375;96435.17;;;;
2020/03/24 00:56:17;;;;;;;6.15;3.6;;;;;;;-3.15;41.34375;96435.17;;;;
2020/03/24 00:57:19;;;;;;;6.15;3.6;;;;;;;-3.15;41.34375;96435.17;;;;
2020/03/24 00:58:20;;;;;;;6.15;3.6;;;;;;;-3.15;41.34375;96435.17;;;;
2020/03/24 00:59:22;;;;;;;6.15;3.6;;;;;;;-3.15;41.34375;96435.17;;;;
2020/03/24 01:00:22;;;;;;;6.15;3.6;;;;;;;-3.15;41.34375;96435.17;;;;
2020/03/24 01:01:23;;;;;;;6.15;3.6;;;;;;;-3.15;41.34375;96435.17;;;;
2020/03/24 01:05:12;;;;;;;5.849999;3.85;;;;;;;-3.25;41.39551;96422.34;;;;
2020/03/24 01:06:15;;;;;;;5.849999;3.85;;;;;;;-3.25;41.39551;96422.34;;;;
2020/03/24 01:07:20;;;;;;;5.849999;3.85;;;;;;;-3.25;41.39551;96422.34;;;;
2020/03/24 01:08:30;;;;;;;5.849999;3.85;;;;;;;-3.25;41.39551;96422.34;;;;
2020/03/24 01:09:31;;;;;;;5.849999;3.85;;;;;;;-3.25;41.39551;96422.34;;;;
2020/03/24 01:10:44;;;;;;;5.849999;3.85;;;;;;;-3.25;41.39551;96422.34;;;;
2020/03/24 01:12:09;;;;;;;5.849999;3.85;;;;;;;-3.25;41.39551;96422.34;;;;
2020/03/24 01:13:13;;;;;;;5.849999;3.85;;;;;;;-3.25;41.39551;96422.34;;;;
2020/03/24 01:14:21;;;;;;;5.849999;3.85;;;;;;;-3.25;41.39551;96422.34;;;;
2020/03/24 01:15:22;;;;;;;5.849999;3.85;;;;;;;-3.25;41.39551;96422.34;;;;
2020/03/24 01:16:40;;;;;;;4.6;3.7;;;;;;;-3.4;41.27637;96420.53;;;;
2020/03/24 01:17:41;;;;;;;4.6;3.7;;;;;;;-3.4;41.27637;96420.53;;;;
2020/03/24 01:18:43;;;;;;;4.6;3.7;;;;;;;-3.4;41.27637;96420.53;;;;
2020/03/24 01:19:52;;;;;;;4.6;3.7;;;;;;;-3.4;41.27637;96420.53;;;;
2020/03/24 01:20:53;;;;;;;4.6;3.7;;;;;;;-3.4;41.27637;96420.53;;;;
2020/03/24 01:21:55;;;;;;;4.6;3.7;;;;;;;-3.4;41.27637;96420.53;;;;
2020/03/24 01:22:56;;;;;;;4.6;3.7;;;;;;;-3.4;41.27637;96420.53;;;;
2020/03/24 01:24:06;;;;;;;4.6;3.7;;;;;;;-3.4;41.27637;96420.53;;;;
2020/03/24 01:25:12;;;;;;;4.6;3.7;;;;;;;-3.4;41.27637;96420.53;;;;
2020/03/24 01:26:15;;;;;;;4.6;3.7;;;;;;;-3.4;41.27637;96420.53;;;;
2020/03/24 01:27:25;;;;;;;6.000001;3.8;;;;;;;-3.51;41.12988;96424.51;;;;
2020/03/24 01:28:26;;;;;;;6.000001;3.8;;;;;;;-3.51;41.12988;96424.51;;;;
2020/03/24 01:29:34;;;;;;;6.000001;3.8;;;;;;;-3.51;41.12988;96424.51;;;;
2020/03/24 01:30:42;;;;;;;6.000001;3.8;;;;;;;-3.51;41.12988;96424.51;;;;
2020/03/24 01:31:57;;;;;;;6.000001;3.8;;;;;;;-3.51;41.12988;96424.51;;;;
2020/03/24 01:33:07;;;;;;;6.000001;3.8;;;;;;;-3.51;41.12988;96424.51;;;;
2020/03/24 01:34:10;;;;;;;6.000001;3.8;;;;;;;-3.51;41.12988;96424.51;;;;
2020/03/24 01:35:18;;;;;;;6.000001;3.8;;;;;;;-3.51;41.12988;96424.51;;;;
2020/03/24 01:36:28;;;;;;;6.000001;3.8;;;;;;;-3.51;41.12988;96424.51;;;;
2020/03/24 01:37:37;;;;;;;8.700001;4.349999;;;;;;;-3.68;41.17578;96410.91;;;;
2020/03/24 01:38:43;;;;;;;8.700001;4.349999;;;;;;;-3.68;41.17578;96410.91;;;;
2020/03/24 01:39:47;;;;;;;7.899999;4.3;;;;;;;-3.65;41.50293;96415.46;;;;
2020/03/24 01:40:58;;;;;;;7.899999;4.3;;;;;;;-3.65;41.50293;96415.46;;;;
2020/03/24 01:42:09;;;;;;;7.899999;4.3;;;;;;;-3.65;41.50293;96415.46;;;;
2020/03/24 01:43:12;;;;;;;7.899999;4.3;;;;;;;-3.65;41.50293;96415.46;;;;
2020/03/24 01:44:20;;;;;;;7.899999;4.3;;;;;;;-3.65;41.50293;96415.46;;;;
2020/03/24 01:45:20;;;;;;;7.899999;4.3;;;;;;;-3.65;41.50293;96415.46;;;;
2020/03/24 01:46:24;;;;;;;7.899999;4.3;;;;;;;-3.65;41.50293;96415.46;;;;
2020/03/24 01:47:32;;;;;;;7.899999;4.3;;;;;;;-3.65;41.50293;96415.46;;;;
2020/03/24 01:48:32;;;;;;;7.899999;4.3;;;;;;;-3.65;41.50293;96415.46;;;;
2020/03/24 01:49:34;;;;;;;7.899999;4.3;;;;;;;-3.65;41.50293;96415.46;;;;
2020/03/24 01:50:35;;;;;;;7.05;4.15;;;;;;;-3.71;41.47559;96405.89;;;;
2020/03/24 01:51:36;;;;;;;7.05;4.15;;;;;;;-3.71;41.47559;96405.89;;;;
2020/03/24 01:52:38;;;;;;;7.05;4.15;;;;;;;-3.71;41.47559;96405.89;;;;
2020/03/24 01:53:39;;;;;;;5.749999;4;;;;;;;-3.67;41.79297;96408.23;;;;
2020/03/24 01:54:40;;;;;;;5.749999;4;;;;;;;-3.67;41.79297;96408.23;;;;
2020/03/24 01:55:42;;;;;;;5.749999;4;;;;;;;-3.67;41.79297;96408.23;;;;
2020/03/24 01:56:43;;;;;;;5.749999;4;;;;;;;-3.67;41.79297;96408.23;;;;
2020/03/24 01:57:47;;;;;;;5.749999;4;;;;;;;-3.67;41.79297;96408.23;;;;
2020/03/24 01:58:59;;;;;;;5.749999;4;;;;;;;-3.67;41.79297;96408.23;;;;
2020/03/24 02:00:00;;;;;;;5.749999;4;;;;;;;-3.67;41.79297;96408.23;;;;
2020/03/24 02:01:01;;;;;;;5.749999;4;;;;;;;-3.67;41.79297;96408.23;;;;
2020/03/24 02:02:46;;;;;;;5.749999;4;;;;;;;-3.67;41.79297;96408.23;;;;
2020/03/24 02:03:48;;;;;;;5.699998;3.95;;;;;;;-3.77;41.8252;96392.7;;;;
2020/03/24 02:04:57;;;;;;;5.699998;3.95;;;;;;;-3.77;41.8252;96392.7;;;;
2020/03/24 02:06:09;;;;;;;6.45;4.349999;;;;;;;-3.74;42.19434;96393.34;;;;
2020/03/24 02:07:14;;;;;;;6.45;4.349999;;;;;;;-3.74;42.19434;96393.34;;;;
2020/03/24 02:09:13;;;;;;;6.45;4.349999;;;;;;;-3.74;42.19434;96393.34;;;;
2020/03/24 02:10:45;;;;;;;6.45;4.349999;;;;;;;-3.74;42.19434;96393.34;;;;
2020/03/24 02:11:45;;;;;;;6.45;4.349999;;;;;;;-3.74;42.19434;96393.34;;;;
2020/03/24 02:12:46;;;;;;;6.45;4.349999;;;;;;;-3.74;42.19434;96393.34;;;;
2020/03/24 02:13:59;;;;;;;6.45;4.349999;;;;;;;-3.74;42.19434;96393.34;;;;
2020/03/24 02:15:03;;;;;;;6.45;4.349999;;;;;;;-3.74;42.19434;96393.34;;;;
2020/03/24 02:16:04;;;;;;;6.45;4.349999;;;;;;;-3.74;42.19434;96393.34;;;;
2020/03/24 02:17:10;;;;;;;6.55;4.15;;;;;;;-3.87;42.05664;96392.16;;;;
2020/03/24 02:18:22;;;;;;;6.55;4.15;;;;;;;-3.87;42.05664;96392.16;;;;
2020/03/24 02:19:34;;;;;;;7.25;4.3;;;;;;;-3.84;42.33105;96391.94;;;;
2020/03/24 02:20:34;;;;;;;7.25;4.3;;;;;;;-3.84;42.33105;96391.94;;;;
2020/03/24 02:21:34;;;;;;;7.25;4.3;;;;;;;-3.84;42.33105;96391.94;;;;
2020/03/24 02:22:38;;;;;;;7.25;4.3;;;;;;;-3.84;42.33105;96391.94;;;;
2020/03/24 02:23:39;;;;;;;7.25;4.3;;;;;;;-3.84;42.33105;96391.94;;;;
2020/03/24 02:24:40;;;;;;;7.25;4.3;;;;;;;-3.84;42.33105;96391.94;;;;
2020/03/24 02:25:46;;;;;;;7.25;4.3;;;;;;;-3.84;42.33105;96391.94;;;;
2020/03/24 02:26:47;;;;;;;7.25;4.3;;;;;;;-3.84;42.33105;96391.94;;;;
2020/03/24 02:27:53;;;;;;;7.25;4.3;;;;;;;-3.84;42.33105;96391.94;;;;
2020/03/24 02:28:53;;;;;;;7.25;4.3;;;;;;;-3.84;42.33105;96391.94;;;;
2020/03/24 02:29:54;;;;;;;7.25;4.3;;;;;;;-3.84;42.33105;96391.94;;;;
2020/03/24 02:30:58;;;;;;;5.6;4.15;;;;;;;-3.95;42.1416;96391.09;;;;
2020/03/24 02:32:01;;;;;;;5.6;4.15;;;;;;;-3.95;42.1416;96391.09;;;;
2020/03/24 02:33:02;;;;;;;5.6;4.15;;;;;;;-3.95;42.1416;96391.09;;;;
2020/03/24 02:34:11;;;;;;;5.6;4.15;;;;;;;-3.95;42.1416;96391.09;;;;
2020/03/24 02:35:13;;;;;;;5.6;4.15;;;;;;;-3.95;42.1416;96391.09;;;;
2020/03/24 02:36:14;;;;;;;5.6;4.15;;;;;;;-3.95;42.1416;96391.09;;;;
2020/03/24 02:37:19;;;;;;;5.6;4.15;;;;;;;-3.95;42.1416;96391.09;;;;
2020/03/24 02:38:24;;;;;;;5.6;4.15;;;;;;;-3.95;42.1416;96391.09;;;;
2020/03/24 02:39:25;;;;;;;5.6;4.15;;;;;;;-3.95;42.1416;96391.09;;;;
2020/03/24 02:40:39;;;;;;;7.4;4.35;;;;;;;-4.03;42.24902;96381.14;;;;
2020/03/24 02:41:42;;;;;;;7.4;4.35;;;;;;;-4.03;42.24902;96381.14;;;;
2020/03/24 02:42:43;;;;;;;7.4;4.35;;;;;;;-4.03;42.24902;96381.14;;;;
2020/03/24 02:43:44;;;;;;;7.4;4.35;;;;;;;-4.03;42.24902;96381.14;;;;
2020/03/24 02:44:47;;;;;;;7.4;4.35;;;;;;;-4.03;42.24902;96381.14;;;;
2020/03/24 02:45:49;;;;;;;7.4;4.35;;;;;;;-4.03;42.24902;96381.14;;;;
2020/03/24 02:47:00;;;;;;;7.4;4.35;;;;;;;-4.03;42.24902;96381.14;;;;
2020/03/24 02:48:03;;;;;;;7.4;4.35;;;;;;;-4.03;42.24902;96381.14;;;;
2020/03/24 02:49:07;;;;;;;7.4;4.35;;;;;;;-4.03;42.24902;96381.14;;;;
2020/03/24 02:50:07;;;;;;;7.4;4.35;;;;;;;-4.03;42.24902;96381.14;;;;
2020/03/24 02:51:09;;;;;;;7.4;4.35;;;;;;;-4.03;42.24902;96381.14;;;;
2020/03/24 02:52:10;;;;;;;7.25;4.35;;;;;;;-4.17;42.12012;96376.59;;;;
2020/03/24 02:53:11;;;;;;;7.25;4.35;;;;;;;-4.17;42.12012;96376.59;;;;
2020/03/24 02:54:12;;;;;;;7.25;4.35;;;;;;;-4.17;42.12012;96376.59;;;;
2020/03/24 02:55:12;;;;;;;7.25;4.35;;;;;;;-4.17;42.12012;96376.59;;;;
2020/03/24 02:56:15;;;;;;;7.25;4.35;;;;;;;-4.17;42.12012;96376.59;;;;
2020/03/24 02:57:17;;;;;;;7.25;4.35;;;;;;;-4.17;42.12012;96376.59;;;;
2020/03/24 02:58:18;;;;;;;7.25;4.35;;;;;;;-4.17;42.12012;96376.59;;;;
2020/03/24 02:59:18;;;;;;;7.25;4.35;;;;;;;-4.17;42.12012;96376.59;;;;
2020/03/24 03:00:20;;;;;;;7.25;4.35;;;;;;;-4.17;42.12012;96376.59;;;;
2020/03/24 03:01:32;;;;;;;7.25;4.35;;;;;;;-4.17;42.12012;96376.59;;;;
2020/03/24 03:02:35;;;;;;;7.699999;4.55;;;;;;;-4.24;42.15527;96369.65;;;;
2020/03/24 03:03:35;;;;;;;7.699999;4.55;;;;;;;-4.24;42.15527;96369.65;;;;
2020/03/24 03:04:40;;;;;;;7.699999;4.55;;;;;;;-4.24;42.15527;96369.65;;;;
2020/03/24 03:05:46;;;;;;;7.699999;4.55;;;;;;;-4.24;42.15527;96369.65;;;;
2020/03/24 03:06:55;;;;;;;7.699999;4.55;;;;;;;-4.24;42.15527;96369.65;;;;
2020/03/24 03:08:16;;;;;;;7.699999;4.55;;;;;;;-4.24;42.15527;96369.65;;;;
2020/03/24 03:09:27;;;;;;;7.699999;4.55;;;;;;;-4.24;42.15527;96369.65;;;;
2020/03/24 03:11:59;;;;;;;7.699999;4.55;;;;;;;-4.24;42.15527;96369.65;;;;
2020/03/24 03:13:05;;;;;;;6.85;4.15;;;;;;;-4.34;42.29102;96348.94;;;;
2020/03/24 03:14:30;;;;;;;6.85;4.15;;;;;;;-4.34;42.29102;96348.94;;;;
2020/03/24 03:15:36;;;;;;;6.85;4.15;;;;;;;-4.34;42.29102;96348.94;;;;
2020/03/24 03:16:42;;;;;;;6.85;4.15;;;;;;;-4.34;42.29102;96348.94;;;;
2020/03/24 03:17:47;;;;;;;6.85;4.15;;;;;;;-4.34;42.29102;96348.94;;;;
2020/03/24 03:18:53;;;;;;;6.85;4.15;;;;;;;-4.34;42.29102;96348.94;;;;
2020/03/24 03:19:54;;;;;;;6.85;4.15;;;;;;;-4.34;42.29102;96348.94;;;;
2020/03/24 03:20:57;;;;;;;6.85;4.15;;;;;;;-4.34;42.29102;96348.94;;;;
2020/03/24 03:21:57;;;;;;;6.85;4.15;;;;;;;-4.34;42.29102;96348.94;;;;
2020/03/24 03:22:58;;;;;;;6.85;4.15;;;;;;;-4.34;42.29102;96348.94;;;;
2020/03/24 03:24:04;;;;;;;5.450001;4.15;;;;;;;-4.39;42.2334;96347.61;;;;
2020/03/24 03:25:06;;;;;;;5.450001;4.15;;;;;;;-4.39;42.2334;96347.61;;;;
2020/03/24 03:26:06;;;;;;;5.450001;4.15;;;;;;;-4.39;42.2334;96347.61;;;;
2020/03/24 03:27:15;;;;;;;5.450001;4.15;;;;;;;-4.39;42.2334;96347.61;;;;
2020/03/24 03:28:24;;;;;;;5.450001;4.15;;;;;;;-4.39;42.2334;96347.61;;;;
2020/03/24 03:29:25;;;;;;;5.450001;4.15;;;;;;;-4.39;42.2334;96347.61;;;;
2020/03/24 03:30:30;;;;;;;5.450001;4.15;;;;;;;-4.39;42.2334;96347.61;;;;
2020/03/24 03:31:34;;;;;;;5.450001;4.15;;;;;;;-4.39;42.2334;96347.61;;;;
2020/03/24 03:32:35;;;;;;;5.450001;4.15;;;;;;;-4.39;42.2334;96347.61;;;;
2020/03/24 03:33:36;;;;;;;5.450001;4.15;;;;;;;-4.39;42.2334;96347.61;;;;
2020/03/24 03:34:40;;;;;;;7.7;4.8;;;;;;;-4.48;42.45313;96344.8;;;;
2020/03/24 03:35:41;;;;;;;7.7;4.8;;;;;;;-4.48;42.45313;96344.8;;;;
2020/03/24 03:36:42;;;;;;;7.399999;4.95;;;;;;;-4.43;42.82227;96344.85;;;;
2020/03/24 03:37:47;;;;;;;7.399999;4.95;;;;;;;-4.43;42.82227;96344.85;;;;
2020/03/24 03:38:55;;;;;;;7.399999;4.95;;;;;;;-4.43;42.82227;96344.85;;;;
2020/03/24 03:40:00;;;;;;;7.399999;4.95;;;;;;;-4.43;42.82227;96344.85;;;;
2020/03/24 03:41:07;;;;;;;7.399999;4.95;;;;;;;-4.43;42.82227;96344.85;;;;
2020/03/24 03:42:10;;;;;;;7.399999;4.95;;;;;;;-4.43;42.82227;96344.85;;;;
2020/03/24 03:43:18;;;;;;;7.399999;4.95;;;;;;;-4.43;42.82227;96344.85;;;;
2020/03/24 03:44:22;;;;;;;7.399999;4.95;;;;;;;-4.43;42.82227;96344.85;;;;
2020/03/24 03:45:23;;;;;;;7.399999;4.95;;;;;;;-4.43;42.82227;96344.85;;;;
2020/03/24 03:46:37;;;;;;;7.399999;4.95;;;;;;;-4.43;42.82227;96344.85;;;;
2020/03/24 03:47:43;;;;;;;7.199999;4.6;;;;;;;-4.48;42.75488;96340.42;;;;
2020/03/24 03:48:44;;;;;;;7.199999;4.6;;;;;;;-4.48;42.75488;96340.42;;;;
2020/03/24 03:49:50;;;;;;;7.199999;4.6;;;;;;;-4.48;42.75488;96340.42;;;;
2020/03/24 03:50:50;;;;;;;7.199999;4.6;;;;;;;-4.48;42.75488;96340.42;;;;
2020/03/24 03:51:53;;;;;;;7.199999;4.6;;;;;;;-4.48;42.75488;96340.42;;;;
2020/03/24 03:52:57;;;;;;;7.199999;4.6;;;;;;;-4.48;42.75488;96340.42;;;;
2020/03/24 03:54:01;;;;;;;7.199999;4.6;;;;;;;-4.48;42.75488;96340.42;;;;
2020/03/24 03:55:10;;;;;;;7.199999;4.6;;;;;;;-4.48;42.75488;96340.42;;;;
2020/03/24 03:56:15;;;;;;;7.199999;4.6;;;;;;;-4.48;42.75488;96340.42;;;;
2020/03/24 03:57:21;;;;;;;7.199999;4.6;;;;;;;-4.48;42.75488;96340.42;;;;
2020/03/24 03:58:26;;;;;;;7.199999;4.6;;;;;;;-4.48;42.75488;96340.42;;;;
2020/03/24 03:59:31;;;;;;;7.199999;4.6;;;;;;;-4.48;42.75488;96340.42;;;;
2020/03/24 04:00:35;;;;;;;7.199999;4.6;;;;;;;-4.48;42.75488;96340.42;;;;
2020/03/24 04:01:38;;;;;;;7.199999;4.6;;;;;;;-4.48;42.75488;96340.42;;;;
2020/03/24 04:02:39;;;;;;;7.199999;4.6;;;;;;;-4.48;42.75488;96340.42;;;;
2020/03/24 04:03:43;;;;;;;7.199999;4.6;;;;;;;-4.48;42.75488;96340.42;;;;
2020/03/24 04:04:46;;;;;;;7.199999;4.6;;;;;;;-4.48;42.75488;96340.42;;;;
2020/03/24 04:05:51;;;;;;;7.199999;4.6;;;;;;;-4.48;42.75488;96340.42;;;;
2020/03/24 04:06:57;;;;;;;7.199999;4.6;;;;;;;-4.48;42.75488;96340.42;;;;
2020/03/24 04:08:07;;;;;;;7.199999;4.6;;;;;;;-4.48;42.75488;96340.42;;;;
2020/03/24 04:09:11;;;;;;;7.150001;4.5;;;;;;;-4.61;42.78516;96351.5;;;;
2020/03/24 04:10:38;;;;;;;7.150001;4.5;;;;;;;-4.61;42.78516;96351.5;;;;
2020/03/24 04:11:39;;;;;;;7.150001;4.5;;;;;;;-4.61;42.78516;96351.5;;;;
2020/03/24 04:12:40;;;;;;;7.150001;4.5;;;;;;;-4.61;42.78516;96351.5;;;;
2020/03/24 04:13:46;;;;;;;7.150001;4.5;;;;;;;-4.61;42.78516;96351.5;;;;
2020/03/24 04:14:51;;;;;;;7.150001;4.5;;;;;;;-4.61;42.78516;96351.5;;;;
2020/03/24 04:15:53;;;;;;;7.150001;4.5;;;;;;;-4.61;42.78516;96351.5;;;;
2020/03/24 04:17:11;;;;;;;7.150001;4.5;;;;;;;-4.61;42.78516;96351.5;;;;
2020/03/24 04:18:25;;;;;;;7.150001;4.5;;;;;;;-4.61;42.78516;96351.5;;;;
2020/03/24 04:19:27;;;;;;;8.35;5.1;;;;;;;-4.7;42.96289;96350.89;;;;
2020/03/24 04:20:31;;;;;;;8.35;5.1;;;;;;;-4.7;42.96289;96350.89;;;;
2020/03/24 04:21:32;;;;;;;8.35;5.1;;;;;;;-4.7;42.96289;96350.89;;;;
2020/03/24 04:22:34;;;;;;;8.35;5.1;;;;;;;-4.7;42.96289;96350.89;;;;
2020/03/24 04:23:35;;;;;;;8.35;5.1;;;;;;;-4.7;42.96289;96350.89;;;;
2020/03/24 04:24:35;;;;;;;8.35;5.1;;;;;;;-4.7;42.96289;96350.89;;;;
2020/03/24 04:25:37;;;;;;;8.35;5.1;;;;;;;-4.7;42.96289;96350.89;;;;
2020/03/24 04:26:41;;;;;;;8.35;5.1;;;;;;;-4.7;42.96289;96350.89;;;;
2020/03/24 04:27:43;;;;;;;8.35;5.1;;;;;;;-4.7;42.96289;96350.89;;;;
2020/03/24 04:28:44;;;;;;;8.35;5.1;;;;;;;-4.7;42.96289;96350.89;;;;
2020/03/24 04:29:49;;;;;;;8.950001;4.849999;;;;;;;-4.82;43.0127;96340.37;;;;
2020/03/24 04:30:56;;;;;;;8.950001;4.849999;;;;;;;-4.82;43.0127;96340.37;;;;
2020/03/24 04:32:06;;;;;;;8.950001;4.849999;;;;;;;-4.82;43.0127;96340.37;;;;
2020/03/24 04:33:08;;;;;;;8.950001;4.849999;;;;;;;-4.82;43.0127;96340.37;;;;
2020/03/24 04:34:12;;;;;;;8.950001;4.849999;;;;;;;-4.82;43.0127;96340.37;;;;
2020/03/24 04:35:17;;;;;;;8.950001;4.849999;;;;;;;-4.82;43.0127;96340.37;;;;
2020/03/24 04:36:21;;;;;;;8.950001;4.849999;;;;;;;-4.82;43.0127;96340.37;;;;
2020/03/24 04:37:22;;;;;;;8.950001;4.849999;;;;;;;-4.82;43.0127;96340.37;;;;
2020/03/24 04:38:29;;;;;;;8.950001;4.849999;;;;;;;-4.82;43.0127;96340.37;;;;
2020/03/24 04:39:32;;;;;;;8.950001;4.849999;;;;;;;-4.82;43.0127;96340.37;;;;
2020/03/24 04:40:40;;;;;;;8;5.2;;;;;;;-4.82;43.37793;96345.22;;;;
2020/03/24 04:41:44;;;;;;;8;5.2;;;;;;;-4.82;43.37793;96345.22;;;;
2020/03/24 04:42:46;;;;;;;8;5.2;;;;;;;-4.82;43.37793;96345.22;;;;
2020/03/24 04:43:51;;;;;;;8;5.2;;;;;;;-4.82;43.37793;96345.22;;;;
2020/03/24 04:44:58;;;;;;;8;5.2;;;;;;;-4.82;43.37793;96345.22;;;;
2020/03/24 04:46:05;;;;;;;8;5.2;;;;;;;-4.82;43.37793;96345.22;;;;
2020/03/24 04:47:10;;;;;;;8;5.2;;;;;;;-4.82;43.37793;96345.22;;;;
2020/03/24 04:48:10;;;;;;;8;5.2;;;;;;;-4.82;43.37793;96345.22;;;;
2020/03/24 04:49:11;;;;;;;8;5.2;;;;;;;-4.82;43.37793;96345.22;;;;
2020/03/24 04:50:11;;;;;;;8;5.2;;;;;;;-4.82;43.37793;96345.22;;;;
2020/03/24 04:51:12;;;;;;;8.700001;5.25;;;;;;;-4.91;43.36914;96346.34;;;;
2020/03/24 04:52:14;;;;;;;8.700001;5.25;;;;;;;-4.91;43.36914;96346.34;;;;
2020/03/24 04:53:15;;;;;;;8.700001;5.25;;;;;;;-4.91;43.36914;96346.34;;;;
2020/03/24 04:54:15;;;;;;;8.700001;5.25;;;;;;;-4.91;43.36914;96346.34;;;;
2020/03/24 04:55:17;;;;;;;8.700001;5.25;;;;;;;-4.91;43.36914;96346.34;;;;
2020/03/24 04:56:17;;;;;;;8.700001;5.25;;;;;;;-4.91;43.36914;96346.34;;;;
2020/03/24 04:57:18;;;;;;;8.700001;5.25;;;;;;;-4.91;43.36914;96346.34;;;;
2020/03/24 04:58:19;;;;;;;8.700001;5.25;;;;;;;-4.91;43.36914;96346.34;;;;
2020/03/24 04:59:19;;;;;;;8.700001;5.25;;;;;;;-4.91;43.36914;96346.34;;;;
2020/03/24 05:00:20;;;;;;;8.700001;5.25;;;;;;;-4.91;43.36914;96346.34;;;;
2020/03/24 05:01:28;;;;;;;7.700001;5.05;;;;;;;-4.89;43.81738;96344.89;;;;
2020/03/24 05:02:28;;;;;;;7.700001;5.05;;;;;;;-4.89;43.81738;96344.89;;;;
2020/03/24 05:03:29;;;;;;;7.700001;5.05;;;;;;;-4.89;43.81738;96344.89;;;;
2020/03/24 05:04:30;;;;;;;7.700001;5.05;;;;;;;-4.89;43.81738;96344.89;;;;
2020/03/24 05:05:33;;;;;;;7.700001;5.05;;;;;;;-4.89;43.81738;96344.89;;;;
2020/03/24 05:06:36;;;;;;;7.700001;5.05;;;;;;;-4.89;43.81738;96344.89;;;;
2020/03/24 05:07:37;;;;;;;7.700001;5.05;;;;;;;-4.89;43.81738;96344.89;;;;
2020/03/24 05:08:38;;;;;;;7.700001;5.05;;;;;;;-4.89;43.81738;96344.89;;;;
2020/03/24 05:09:39;;;;;;;7.700001;5.05;;;;;;;-4.89;43.81738;96344.89;;;;
2020/03/24 05:10:47;;;;;;;7.700001;5.05;;;;;;;-4.89;43.81738;96344.89;;;;
2020/03/24 05:11:50;;;;;;;7.700001;5.05;;;;;;;-4.89;43.81738;96344.89;;;;
2020/03/24 05:12:51;;;;;;;8.200001;5.35;;;;;;;-4.91;43.94043;96347.74;;;;
2020/03/24 05:13:54;;;;;;;8.200001;5.35;;;;;;;-4.91;43.94043;96347.74;;;;
2020/03/24 05:14:56;;;;;;;8.200001;5.35;;;;;;;-4.91;43.94043;96347.74;;;;
2020/03/24 05:15:59;;;;;;;8.200001;5.35;;;;;;;-4.91;43.94043;96347.74;;;;
2020/03/24 05:17:00;;;;;;;8.200001;5.35;;;;;;;-4.91;43.94043;96347.74;;;;
2020/03/24 05:18:03;;;;;;;8.200001;5.35;;;;;;;-4.91;43.94043;96347.74;;;;
2020/03/24 05:19:07;;;;;;;8.200001;5.35;;;;;;;-4.91;43.94043;96347.74;;;;
2020/03/24 05:20:08;;;;;;;8.200001;5.35;;;;;;;-4.91;43.94043;96347.74;;;;
2020/03/24 05:21:09;;;;;;;8.200001;5.35;;;;;;;-4.91;43.94043;96347.74;;;;
2020/03/24 05:22:13;;;;;;;8.200001;5.35;;;;;;;-4.91;43.94043;96347.74;;;;
2020/03/24 05:23:15;;;;;;;8.200001;5.35;;;;;;;-4.91;43.94043;96347.74;;;;
2020/03/24 05:24:15;;;;;;;8.200001;5.35;;;;;;;-4.91;43.94043;96347.74;;;;
2020/03/24 05:25:16;;;;;;;8.200001;5.35;;;;;;;-4.91;43.94043;96347.74;;;;
2020/03/24 05:26:17;;;;;;;8.200001;5.35;;;;;;;-4.91;43.94043;96347.74;;;;
2020/03/24 05:27:24;;;;;;;8.200001;5.35;;;;;;;-4.91;43.94043;96347.74;;;;
2020/03/24 05:28:24;;;;;;;8.200001;5.35;;;;;;;-4.91;43.94043;96347.74;;;;
2020/03/24 05:29:25;;;;;;;8.200001;5.35;;;;;;;-4.91;43.94043;96347.74;;;;
2020/03/24 05:30:26;;;;;;;8.200001;5.35;;;;;;;-4.91;43.94043;96347.74;;;;
2020/03/24 05:31:26;;;;;;;8.200001;5.35;;;;;;;-4.91;43.94043;96347.74;;;;
2020/03/24 05:32:27;;;;;;;8.200001;5.35;;;;;;;-4.91;43.94043;96347.74;;;;
2020/03/24 05:33:29;;;;;;;8.200001;5.35;;;;;;;-4.91;43.94043;96347.74;;;;
2020/03/24 05:34:30;;;;;;;7.95;5.15;;;;;;;-4.65;44.26953;96354.05;;;;
2020/03/24 05:35:30;;;;;;;7.95;5.15;;;;;;;-4.65;44.26953;96354.05;;;;
2020/03/24 05:36:31;;;;;;;11.4;6;;;;;;;-4.58;44.61035;96361.83;;;;
2020/03/24 05:37:33;;;;;;;11.4;6;;;;;;;-4.58;44.61035;96361.83;;;;
2020/03/24 05:38:34;;;;;;;11.4;6;;;;;;;-4.58;44.61035;96361.83;;;;
2020/03/24 05:39:46;;;;;;;11.4;6;;;;;;;-4.58;44.61035;96361.83;;;;
2020/03/24 05:40:47;;;;;;;11.4;6;;;;;;;-4.58;44.61035;96361.83;;;;
2020/03/24 05:41:47;;;;;;;11.4;6;;;;;;;-4.58;44.61035;96361.83;;;;
2020/03/24 05:42:50;;;;;;;11.4;6;;;;;;;-4.58;44.61035;96361.83;;;;
2020/03/24 05:43:51;;;;;;;11.4;6;;;;;;;-4.58;44.61035;96361.83;;;;
2020/03/24 05:44:55;;;;;;;11.4;6;;;;;;;-4.58;44.61035;96361.83;;;;
2020/03/24 05:45:56;;;;;;;11.4;6;;;;;;;-4.58;44.61035;96361.83;;;;
2020/03/24 05:46:56;;;;;;;9.650001;5.65;;;;;;;-4.44;44.54199;96360.24;;;;
2020/03/24 05:48:00;;;;;;;9.650001;5.65;;;;;;;-4.44;44.54199;96360.24;;;;
2020/03/24 05:49:03;;;;;;;9.650001;5.65;;;;;;;-4.44;44.54199;96360.24;;;;
2020/03/24 05:50:03;;;;;;;9.650001;5.65;;;;;;;-4.44;44.54199;96360.24;;;;
2020/03/24 05:51:10;;;;;;;9.650001;5.65;;;;;;;-4.44;44.54199;96360.24;;;;
2020/03/24 05:52:12;;;;;;;9.650001;5.65;;;;;;;-4.44;44.54199;96360.24;;;;
2020/03/24 05:53:12;;;;;;;9.650001;5.65;;;;;;;-4.44;44.54199;96360.24;;;;
2020/03/24 05:54:13;;;;;;;9.650001;5.65;;;;;;;-4.44;44.54199;96360.24;;;;
2020/03/24 05:55:13;;;;;;;9.650001;5.65;;;;;;;-4.44;44.54199;96360.24;;;;
2020/03/24 05:56:14;;;;;;;9.650001;5.65;;;;;;;-4.44;44.54199;96360.24;;;;
2020/03/24 05:57:14;;;;;;;9.650001;5.65;;;;;;;-4.44;44.54199;96360.24;;;;
2020/03/24 05:58:17;;;;;;;7.65;5.7;;;;;;;-4.2;44.56738;96370.25;;;;
2020/03/24 05:59:19;;;;;;;7.65;5.7;;;;;;;-4.2;44.56738;96370.25;;;;
2020/03/24 06:00:19;;;;;;;7.65;5.7;;;;;;;-4.2;44.56738;96370.25;;;;
2020/03/24 06:01:20;;;;;;;7.65;5.7;;;;;;;-4.2;44.56738;96370.25;;;;
2020/03/24 06:02:21;;;;;;;7.65;5.7;;;;;;;-4.2;44.56738;96370.25;;;;
2020/03/24 06:03:21;;;;;;;7.65;5.7;;;;;;;-4.2;44.56738;96370.25;;;;
2020/03/24 06:04:23;;;;;;;7.65;5.7;;;;;;;-4.2;44.56738;96370.25;;;;
2020/03/24 06:05:24;;;;;;;7.65;5.7;;;;;;;-4.2;44.56738;96370.25;;;;
2020/03/24 06:06:25;;;;;;;7.65;5.7;;;;;;;-4.2;44.56738;96370.25;;;;
2020/03/24 06:07:26;;;;;;;7.65;5.7;;;;;;;-4.2;44.56738;96370.25;;;;